Time;durP1;ratioP1;P1;durP2;ratioP2;P2;SDS_P1;SDS_P2;PMS_P1;PMS_P2;Temp;Humidity;BMP_temperature;BMP_pressure;BME280_temperature;BME280_humidity;BME280_pressure;Samples;Min_cycle;Max_cycle;Signal;HPM_P1;HPM_P2
2022/09/15 00:00:17;;;;;;;3.67;0.80;;;;;;;;;;5040963;28;20051;-62
2022/09/15 00:02:43;;;;;;;1.30;0.73;;;;;;;;;;5037609;28;20037;-62
2022/09/15 00:05:10;;;;;;;4.65;1.20;;;;;;;;;;5041806;28;20048;-62
2022/09/15 00:07:36;;;;;;;3.63;1.15;;;;;;;;;;5041437;28;20155;-62
2022/09/15 00:10:04;;;;;;;1.75;1.20;;;;;;;;;;5039540;28;20039;-62
2022/09/15 00:12:30;;;;;;;5.55;1.40;;;;;;;;;;5041577;28;20537;-62
2022/09/15 00:14:56;;;;;;;2.90;1.30;;;;;;;;;;5040804;28;20122;-62
2022/09/15 00:17:23;;;;;;;4.15;1.60;;;;;;;;;;5041442;28;20045;-62
2022/09/15 00:19:49;;;;;;;2.88;1.63;;;;;;;;;;5041367;28;20060;-62
2022/09/15 00:22:15;;;;;;;3.97;2.20;;;;;;;;;;5038887;28;20029;-62
2022/09/15 00:24:41;;;;;;;5.40;2.28;;;;;;;;;;5038029;28;20041;-62
2022/09/15 00:27:07;;;;;;;7.35;2.85;;;;;;;;;;5039599;28;20372;-62
2022/09/15 00:29:34;;;;;;;3.53;2.38;;;;;;;;;;5040058;28;20075;-62
2022/09/15 00:32:01;;;;;;;4.25;2.40;;;;;;;;;;5040029;28;20195;-62
2022/09/15 00:34:27;;;;;;;7.22;3.63;;;;;;;;;;5041228;28;20104;-62
2022/09/15 00:36:53;;;;;;;8.48;3.30;;;;;;;;;;5037405;28;20049;-62
2022/09/15 00:39:19;;;;;;;6.53;3.92;;;;;;;;;;5039035;28;20134;-62
2022/09/15 00:41:45;;;;;;;8.40;3.38;;;;;;;;;;5036597;28;20218;-61
2022/09/15 00:44:15;;;;;;;9.30;3.50;;;;;;;;;;5036739;28;20051;-62
2022/09/15 00:46:42;;;;;;;5.80;2.70;;;;;;;;;;5041260;28;20037;-62
2022/09/15 00:49:18;;;;;;;5.95;3.75;;;;;;;;;;5041521;28;20044;-62
2022/09/15 00:51:48;;;;;;;8.13;4.10;;;;;;;;;;5053485;28;20483;-61
2022/09/15 00:54:17;;;;;;;6.57;4.18;;;;;;;;;;5035447;28;20052;-62
2022/09/15 00:56:43;;;;;;;7.47;4.05;;;;;;;;;;5038862;28;20134;-62
2022/09/15 00:59:12;;;;;;;9.00;4.00;;;;;;;;;;5037891;28;20049;-62
2022/09/15 01:01:39;;;;;;;6.72;3.88;;;;;;;;;;5047712;23;20056;-62
2022/09/15 01:04:05;;;;;;;10.02;4.55;;;;;;;;;;5028789;28;20053;-62
2022/09/15 01:06:34;;;;;;;6.93;3.85;;;;;;;;;;5022619;28;20042;-61
2022/09/15 01:09:07;;;;;;;7.53;4.00;;;;;;;;;;5021001;28;20117;-62
2022/09/15 01:11:33;;;;;;;9.70;4.05;;;;;;;;;;5021130;28;20056;-62
2022/09/15 01:14:00;;;;;;;11.05;2.72;;;;;;;;;;5026227;28;20099;-62
2022/09/15 01:16:41;;;;;;;7.68;2.65;;;;;;;;;;5037872;28;20102;-62
2022/09/15 01:19:14;;;;;;;5.18;2.72;;;;;;;;;;5025303;28;20053;-62
2022/09/15 01:21:40;;;;;;;10.07;2.80;;;;;;;;;;5024938;28;20086;-62
2022/09/15 01:24:28;;;;;;;6.85;2.20;;;;;;;;;;5033861;28;20044;-62
2022/09/15 01:26:58;;;;;;;4.90;2.05;;;;;;;;;;5023228;28;20041;-62
2022/09/15 01:29:27;;;;;;;9.00;2.35;;;;;;;;;;5026071;28;20045;-62
2022/09/15 01:34:52;;;;;;;8.07;2.35;;;;;;;;;;5028097;28;20049;-62
2022/09/15 01:37:24;;;;;;;6.13;2.17;;;;;;;;;;5025409;28;20208;-62
2022/09/15 01:39:52;;;;;;;4.18;1.90;;;;;;;;;;5031890;28;20045;-62
2022/09/15 01:42:19;;;;;;;6.73;1.47;;;;;;;;;;5027033;28;20030;-62
2022/09/15 01:44:49;;;;;;;5.60;1.48;;;;;;;;;;5024716;28;20045;-62
2022/09/15 01:47:17;;;;;;;9.27;1.88;;;;;;;;;;5025925;28;20475;-62
2022/09/15 01:49:48;;;;;;;2.88;0.95;;;;;;;;;;5024824;28;20084;-62
2022/09/15 01:52:16;;;;;;;4.50;1.30;;;;;;;;;;5023981;28;20038;-62
2022/09/15 01:54:47;;;;;;;4.93;1.27;;;;;;;;;;5024918;28;20046;-62
2022/09/15 01:57:16;;;;;;;10.70;1.30;;;;;;;;;;5035161;28;20128;-62
2022/09/15 01:59:43;;;;;;;6.00;1.30;;;;;;;;;;5025972;28;20056;-62
2022/09/15 02:02:13;;;;;;;5.60;1.20;;;;;;;;;;5024644;28;20763;-62
2022/09/15 02:04:45;;;;;;;9.63;1.45;;;;;;;;;;5033228;28;20045;-62
2022/09/15 02:07:15;;;;;;;8.38;0.98;;;;;;;;;;5021802;28;20052;-62
2022/09/15 02:09:50;;;;;;;6.97;1.20;;;;;;;;;;5026137;28;20116;-62
2022/09/15 02:12:18;;;;;;;6.55;0.80;;;;;;;;;;5027247;28;20538;-61
2022/09/15 02:14:46;;;;;;;;;;;;;;;;;;5025039;28;20053;-62
2022/09/15 02:17:14;;;;;;;5.70;1.02;;;;;;;;;;5030297;28;20294;-62
2022/09/15 02:19:45;;;;;;;7.05;0.75;;;;;;;;;;5035561;28;20737;-62
2022/09/15 02:22:16;;;;;;;5.88;0.70;;;;;;;;;;5026649;28;20045;-62
2022/09/15 02:24:45;;;;;;;4.88;0.90;;;;;;;;;;5023103;28;20041;-62
2022/09/15 02:27:14;;;;;;;7.68;0.98;;;;;;;;;;5034609;28;20083;-62
2022/09/15 02:29:42;;;;;;;5.90;1.10;;;;;;;;;;5025491;28;20053;-62
2022/09/15 02:32:08;;;;;;;5.43;1.08;;;;;;;;;;5021932;28;20037;-62
2022/09/15 02:34:36;;;;;;;6.78;0.80;;;;;;;;;;5026961;28;20475;-62
2022/09/15 02:37:03;;;;;;;3.08;0.75;;;;;;;;;;5030672;28;20667;-63
2022/09/15 02:39:32;;;;;;;4.30;0.80;;;;;;;;;;5038089;28;20044;-62
2022/09/15 02:42:01;;;;;;;5.53;0.70;;;;;;;;;;5024373;28;20049;-62
2022/09/15 02:44:29;;;;;;;5.95;0.80;;;;;;;;;;5023826;28;20049;-62
2022/09/15 02:46:56;;;;;;;2.15;0.65;;;;;;;;;;5022473;28;20112;-62
2022/09/15 02:49:22;;;;;;;6.78;0.80;;;;;;;;;;5023440;28;20045;-62
2022/09/15 02:51:48;;;;;;;6.90;1.10;;;;;;;;;;5038168;28;20499;-62
2022/09/15 02:54:15;;;;;;;3.90;0.88;;;;;;;;;;5039429;28;20036;-62
2022/09/15 02:56:41;;;;;;;5.15;0.70;;;;;;;;;;5030593;28;20160;-62
2022/09/15 02:59:07;;;;;;;7.45;0.80;;;;;;;;;;5033258;28;20037;-62
2022/09/15 03:01:34;;;;;;;1.85;0.55;;;;;;;;;;5033794;28;20785;-62
2022/09/15 03:04:01;;;;;;;5.25;0.80;;;;;;;;;;5038855;28;20474;-62
2022/09/15 03:06:33;;;;;;;3.40;0.63;;;;;;;;;;5029317;28;20041;-62
2022/09/15 03:09:00;;;;;;;4.78;0.85;;;;;;;;;;5023532;28;20115;-62
2022/09/15 03:11:27;;;;;;;5.15;0.60;;;;;;;;;;5022165;28;20120;-62
2022/09/15 03:13:54;;;;;;;4.03;0.75;;;;;;;;;;5023018;28;20107;-62
2022/09/15 03:16:20;;;;;;;6.43;0.82;;;;;;;;;;5027032;28;20132;-62
2022/09/15 03:18:47;;;;;;;6.93;0.80;;;;;;;;;;5031027;28;20483;-62
2022/09/15 03:21:13;;;;;;;5.78;0.70;;;;;;;;;;5023194;28;20045;-62
2022/09/15 03:23:40;;;;;;;3.67;0.73;;;;;;;;;;5022659;28;20037;-62
2022/09/15 03:26:07;;;;;;;4.43;0.80;;;;;;;;;;5022339;28;20137;-62
2022/09/15 03:28:33;;;;;;;7.05;0.90;;;;;;;;;;5022642;28;20052;-63
2022/09/15 03:31:00;;;;;;;8.95;0.80;;;;;;;;;;5022842;28;20045;-62
2022/09/15 03:33:26;;;;;;;7.47;1.00;;;;;;;;;;5031424;28;20048;-62
2022/09/15 03:35:52;;;;;;;4.40;0.73;;;;;;;;;;5022746;28;20056;-62
2022/09/15 03:38:19;;;;;;;4.85;0.77;;;;;;;;;;5022911;28;20068;-62
2022/09/15 03:40:56;;;;;;;8.00;0.98;;;;;;;;;;5021496;28;20107;-62
2022/09/15 03:43:22;;;;;;;9.23;1.20;;;;;;;;;;5022651;28;20746;-62
2022/09/15 03:45:48;;;;;;;8.15;1.02;;;;;;;;;;5022252;28;20106;-62
2022/09/15 03:48:14;;;;;;;5.95;1.05;;;;;;;;;;5022915;28;20033;-62
2022/09/15 03:50:40;;;;;;;4.18;0.85;;;;;;;;;;5021397;28;20120;-62
2022/09/15 03:53:06;;;;;;;6.35;0.93;;;;;;;;;;5026568;28;20029;-62
2022/09/15 03:55:32;;;;;;;3.28;0.90;;;;;;;;;;5029073;28;20056;-62
2022/09/15 03:57:59;;;;;;;5.40;1.05;;;;;;;;;;5022866;28;20134;-62
2022/09/15 04:00:25;;;;;;;1.48;0.52;;;;;;;;;;5020913;28;20045;-62
2022/09/15 04:02:51;;;;;;;6.68;0.77;;;;;;;;;;5025717;28;20111;-62
2022/09/15 04:05:17;;;;;;;3.78;0.60;;;;;;;;;;5024716;28;20533;-62
2022/09/15 04:07:43;;;;;;;4.65;0.80;;;;;;;;;;5021816;28;20042;-62
2022/09/15 04:10:10;;;;;;;6.28;1.60;;;;;;;;;;5021756;28;20040;-62
2022/09/15 04:12:36;;;;;;;4.78;0.70;;;;;;;;;;5029051;28;20045;-62
2022/09/15 04:15:03;;;;;;;4.20;0.88;;;;;;;;;;5027902;28;20042;-62
2022/09/15 04:17:29;;;;;;;8.70;1.00;;;;;;;;;;5023815;28;20038;-62
2022/09/15 04:19:55;;;;;;;8.25;1.30;;;;;;;;;;5022037;28;20104;-62
2022/09/15 04:22:22;;;;;;;4.13;0.88;;;;;;;;;;5025715;28;20048;-62
2022/09/15 04:24:49;;;;;;;5.32;0.80;;;;;;;;;;5021270;28;20056;-62
2022/09/15 04:27:15;;;;;;;4.50;0.70;;;;;;;;;;5022087;28;20188;-62
2022/09/15 04:29:42;;;;;;;3.63;0.80;;;;;;;;;;5023184;28;20517;-62
2022/09/15 04:32:08;;;;;;;12.73;0.95;;;;;;;;;;5028921;28;20088;-62
2022/09/15 04:34:35;;;;;;;6.47;0.65;;;;;;;;;;5028870;28;20045;-62
2022/09/15 04:37:01;;;;;;;4.43;0.63;;;;;;;;;;5022458;28;20053;-62
2022/09/15 04:39:28;;;;;;;7.95;0.68;;;;;;;;;;5020118;28;20120;-62
2022/09/15 04:41:54;;;;;;;6.05;1.05;;;;;;;;;;5021927;28;20076;-62
2022/09/15 04:44:20;;;;;;;5.30;0.82;;;;;;;;;;5021851;28;20076;-62
2022/09/15 04:46:47;;;;;;;4.35;0.75;;;;;;;;;;5028320;28;20052;-62
2022/09/15 04:49:13;;;;;;;5.03;0.70;;;;;;;;;;5029675;28;20050;-62
2022/09/15 04:51:39;;;;;;;6.22;0.85;;;;;;;;;;5031140;28;20045;-62
2022/09/15 04:54:06;;;;;;;7.40;0.80;;;;;;;;;;5026209;28;20051;-62
2022/09/15 04:56:32;;;;;;;3.42;0.40;;;;;;;;;;5028339;28;20046;-62
2022/09/15 04:58:59;;;;;;;6.07;1.02;;;;;;;;;;5028384;28;20041;-62
2022/09/15 05:01:27;;;;;;;6.40;0.57;;;;;;;;;;5028412;28;20049;-63
2022/09/15 05:03:53;;;;;;;4.82;0.70;;;;;;;;;;5030189;28;20045;-62
2022/09/15 05:06:21;;;;;;;5.82;0.80;;;;;;;;;;5039179;28;20044;-62
2022/09/15 05:08:48;;;;;;;5.53;0.50;;;;;;;;;;5037151;28;20079;-62
2022/09/15 05:11:14;;;;;;;7.47;0.90;;;;;;;;;;5033823;28;20038;-63
2022/09/15 05:13:41;;;;;;;5.07;0.93;;;;;;;;;;5036116;28;20038;-63
2022/09/15 05:16:08;;;;;;;7.18;0.63;;;;;;;;;;5039303;28;20518;-63
2022/09/15 05:18:35;;;;;;;4.10;0.77;;;;;;;;;;5031402;28;20052;-63
2022/09/15 05:21:02;;;;;;;13.15;0.75;;;;;;;;;;5025193;28;20128;-63
2022/09/15 05:23:28;;;;;;;4.72;0.63;;;;;;;;;;5029896;28;20048;-63
2022/09/15 05:25:55;;;;;;;4.18;0.55;;;;;;;;;;5025295;28;20049;-62
2022/09/15 05:28:23;;;;;;;3.15;0.70;;;;;;;;;;5041446;28;20379;-62
2022/09/15 05:30:51;;;;;;;3.92;0.80;;;;;;;;;;5036508;28;20055;-62
2022/09/15 05:33:17;;;;;;;10.57;0.93;;;;;;;;;;5028003;28;20088;-61
2022/09/15 05:35:51;;;;;;;6.13;0.80;;;;;;;;;;5019908;28;20340;-62
2022/09/15 05:38:17;;;;;;;8.50;0.95;;;;;;;;;;5022599;28;20128;-61
2022/09/15 05:40:44;;;;;;;6.28;0.70;;;;;;;;;;5021247;28;20569;-61
2022/09/15 05:43:10;;;;;;;6.18;0.82;;;;;;;;;;5024481;28;20502;-61
2022/09/15 05:45:36;;;;;;;6.47;0.52;;;;;;;;;;5023933;28;20037;-62
2022/09/15 05:48:02;;;;;;;11.77;0.80;;;;;;;;;;5023643;28;20049;-62
2022/09/15 05:50:29;;;;;;;4.65;0.50;;;;;;;;;;5023078;28;20526;-60
2022/09/15 05:52:56;;;;;;;4.55;0.40;;;;;;;;;;5024349;28;20042;-61
2022/09/15 05:55:22;;;;;;;5.13;0.52;;;;;;;;;;5024090;28;20037;-61
2022/09/15 05:57:48;;;;;;;9.23;0.93;;;;;;;;;;5022921;28;20048;-61
2022/09/15 06:00:14;;;;;;;5.20;1.00;;;;;;;;;;5018006;28;20079;-61
2022/09/15 06:02:41;;;;;;;6.93;1.10;;;;;;;;;;5022661;28;20049;-61
2022/09/15 06:05:07;;;;;;;4.40;0.70;;;;;;;;;;5023819;28;20057;-61
2022/09/15 06:07:33;;;;;;;8.25;0.90;;;;;;;;;;5024151;28;20030;-61
2022/09/15 06:09:59;;;;;;;5.35;0.80;;;;;;;;;;5023840;28;20132;-60
2022/09/15 06:12:26;;;;;;;6.53;1.00;;;;;;;;;;5024225;28;20042;-60
2022/09/15 06:14:52;;;;;;;5.28;0.80;;;;;;;;;;5024220;28;20210;-60
2022/09/15 06:17:19;;;;;;;6.25;0.70;;;;;;;;;;5023272;28;20037;-61
2022/09/15 06:19:45;;;;;;;3.45;0.73;;;;;;;;;;5024107;28;20056;-61
2022/09/15 06:22:12;;;;;;;3.08;0.40;;;;;;;;;;5024175;28;20506;-60
2022/09/15 06:24:38;;;;;;;8.18;0.80;;;;;;;;;;5022823;28;20044;-61
2022/09/15 06:27:04;;;;;;;11.60;1.13;;;;;;;;;;5024198;28;20100;-61
2022/09/15 06:29:31;;;;;;;6.60;0.80;;;;;;;;;;5022288;28;20081;-60
2022/09/15 06:32:01;;;;;;;3.47;0.50;;;;;;;;;;5024204;28;20049;-60
2022/09/15 06:34:28;;;;;;;4.95;0.63;;;;;;;;;;5023474;28;20053;-60
2022/09/15 06:36:55;;;;;;;6.18;0.73;;;;;;;;;;5025845;28;20053;-60
2022/09/15 06:39:21;;;;;;;14.13;1.20;;;;;;;;;;5028666;28;20133;-60
2022/09/15 06:41:47;;;;;;;7.32;0.60;;;;;;;;;;5027915;28;20375;-61
2022/09/15 06:44:13;;;;;;;8.65;0.80;;;;;;;;;;5029814;28;20545;-61
2022/09/15 06:46:39;;;;;;;6.65;0.70;;;;;;;;;;5027165;28;20510;-60
2022/09/15 06:49:06;;;;;;;9.35;0.80;;;;;;;;;;5024585;28;20475;-61
2022/09/15 06:51:34;;;;;;;7.78;0.70;;;;;;;;;;5042802;28;20037;-62
2022/09/15 06:54:01;;;;;;;7.88;0.80;;;;;;;;;;5043259;28;20056;-61
2022/09/15 06:56:28;;;;;;;5.07;0.43;;;;;;;;;;5043908;28;20043;-60
2022/09/15 06:58:55;;;;;;;6.75;1.00;;;;;;;;;;5027307;28;20052;-61
2022/09/15 07:01:24;;;;;;;14.65;1.75;;;;;;;;;;5017687;28;20057;-61
2022/09/15 07:03:50;;;;;;;4.30;0.60;;;;;;;;;;5019795;28;20064;-61
2022/09/15 07:06:17;;;;;;;6.70;0.80;;;;;;;;;;5019373;28;20041;-61
2022/09/15 07:08:45;;;;;;;3.70;0.65;;;;;;;;;;5019266;28;20049;-60
2022/09/15 07:11:11;;;;;;;7.85;1.00;;;;;;;;;;5019435;28;20045;-60
2022/09/15 07:13:38;;;;;;;5.75;0.88;;;;;;;;;;5019569;28;20050;-60
2022/09/15 07:16:06;;;;;;;6.60;0.68;;;;;;;;;;5019824;28;20037;-61
2022/09/15 07:18:32;;;;;;;3.90;0.43;;;;;;;;;;5019852;28;20103;-62
2022/09/15 07:20:59;;;;;;;4.88;0.60;;;;;;;;;;5020124;28;20439;-61
2022/09/15 07:23:26;;;;;;;5.05;0.50;;;;;;;;;;5024855;28;20045;-61
2022/09/15 07:25:52;;;;;;;7.50;0.88;;;;;;;;;;5018415;28;20428;-61
2022/09/15 07:28:18;;;;;;;8.25;0.75;;;;;;;;;;5018923;28;20049;-61
2022/09/15 07:30:44;;;;;;;2.83;0.32;;;;;;;;;;5013240;28;20049;-61
2022/09/15 07:33:12;;;;;;;6.60;0.60;;;;;;;;;;5018810;28;20136;-61
2022/09/15 07:35:42;;;;;;;3.17;0.50;;;;;;;;;;5020090;28;20053;-61
2022/09/15 07:38:09;;;;;;;5.68;0.65;;;;;;;;;;5027215;28;20044;-61
2022/09/15 07:40:35;;;;;;;4.75;0.75;;;;;;;;;;5037556;28;20561;-61
2022/09/15 07:43:01;;;;;;;6.35;0.82;;;;;;;;;;5036527;28;20041;-61
2022/09/15 07:45:27;;;;;;;2.83;0.45;;;;;;;;;;5039864;28;20092;-61
2022/09/15 07:47:54;;;;;;;6.72;0.43;;;;;;;;;;5034826;28;20134;-61
2022/09/15 07:50:20;;;;;;;5.38;0.50;;;;;;;;;;5038815;28;20186;-61
2022/09/15 07:52:46;;;;;;;5.03;0.77;;;;;;;;;;5036228;28;20048;-61
2022/09/15 07:55:12;;;;;;;7.22;0.50;;;;;;;;;;5037789;28;20037;-61
2022/09/15 07:57:38;;;;;;;4.78;0.47;;;;;;;;;;5037767;28;20045;-61
2022/09/15 08:00:05;;;;;;;3.90;0.52;;;;;;;;;;5009255;28;20044;-61
2022/09/15 08:02:31;;;;;;;4.18;0.40;;;;;;;;;;5022090;28;20060;-61
2022/09/15 08:04:58;;;;;;;8.70;0.90;;;;;;;;;;5022860;28;20049;-61
2022/09/15 08:07:24;;;;;;;11.85;0.90;;;;;;;;;;5022592;28;20048;-60
2022/09/15 08:09:50;;;;;;;9.00;0.63;;;;;;;;;;5021712;28;20813;-61
2022/09/15 08:12:16;;;;;;;6.20;0.88;;;;;;;;;;5022521;28;20041;-61
2022/09/15 08:14:42;;;;;;;3.80;0.28;;;;;;;;;;5022291;28;20042;-61
2022/09/15 08:17:09;;;;;;;6.65;0.50;;;;;;;;;;5022450;28;20042;-61
2022/09/15 08:19:35;;;;;;;5.32;0.50;;;;;;;;;;5021925;28;20475;-61
2022/09/15 08:22:02;;;;;;;6.05;0.70;;;;;;;;;;5021762;28;20037;-61
2022/09/15 08:24:28;;;;;;;2.58;0.30;;;;;;;;;;5021958;28;20080;-61
2022/09/15 08:26:55;;;;;;;5.97;0.77;;;;;;;;;;5022187;28;20041;-61
2022/09/15 08:29:21;;;;;;;1.90;0.30;;;;;;;;;;5022517;28;20257;-61
2022/09/15 08:31:47;;;;;;;5.07;0.50;;;;;;;;;;5022574;28;20046;-61
2022/09/15 08:34:15;;;;;;;4.97;0.68;;;;;;;;;;5021376;28;20048;-61
2022/09/15 08:36:41;;;;;;;4.57;0.50;;;;;;;;;;5021887;28;20046;-61
2022/09/15 08:39:08;;;;;;;6.40;0.65;;;;;;;;;;5020152;28;20076;-61
2022/09/15 08:41:37;;;;;;;3.22;0.45;;;;;;;;;;5021948;28;20616;-61
2022/09/15 08:44:06;;;;;;;3.40;0.35;;;;;;;;;;5022129;28;20073;-61
2022/09/15 08:46:38;;;;;;;5.25;0.82;;;;;;;;;;5022064;28;20049;-61
2022/09/15 08:49:10;;;;;;;4.13;0.60;;;;;;;;;;5021926;28;20034;-61
2022/09/15 08:51:41;;;;;;;4.10;0.77;;;;;;;;;;5021359;28;20040;-61
2022/09/15 08:54:11;;;;;;;5.55;0.52;;;;;;;;;;5021137;28;20042;-61
2022/09/15 08:56:38;;;;;;;3.55;0.50;;;;;;;;;;5008558;28;20121;-61
2022/09/15 08:59:04;;;;;;;8.13;0.50;;;;;;;;;;5013061;28;20118;-61
2022/09/15 09:01:38;;;;;;;6.90;0.60;;;;;;;;;;5016494;28;20111;-61
2022/09/15 09:04:16;;;;;;;2.90;0.52;;;;;;;;;;5037377;28;20053;-61
2022/09/15 09:06:50;;;;;;;6.90;1.20;;;;;;;;;;5021738;28;20104;-61
2022/09/15 09:09:24;;;;;;;5.22;0.57;;;;;;;;;;5020587;28;20045;-61
2022/09/15 09:12:14;;;;;;;5.40;0.45;;;;;;;;;;5021426;28;20045;-61
2022/09/15 09:14:57;;;;;;;6.28;1.20;;;;;;;;;;5021373;28;20053;-61
2022/09/15 09:17:41;;;;;;;6.25;0.60;;;;;;;;;;5020580;28;20814;-61
2022/09/15 09:20:28;;;;;;;6.07;0.70;;;;;;;;;;5022051;28;20056;-61
2022/09/15 09:22:54;;;;;;;7.63;0.57;;;;;;;;;;5021220;28;20088;-61
2022/09/15 09:25:21;;;;;;;8.88;1.75;;;;;;;;;;5020984;28;20049;-61
2022/09/15 09:27:48;;;;;;;6.13;0.80;;;;;;;;;;5021586;28;20041;-61
2022/09/15 09:30:17;;;;;;;5.63;0.57;;;;;;;;;;5022044;28;20120;-61
2022/09/15 09:32:45;;;;;;;6.00;1.05;;;;;;;;;;5023656;28;20050;-61
2022/09/15 09:35:15;;;;;;;5.72;0.70;;;;;;;;;;5025039;28;20184;-61
2022/09/15 09:37:41;;;;;;;1.45;0.30;;;;;;;;;;5024645;28;20120;-61
2022/09/15 09:40:12;;;;;;;5.15;0.70;;;;;;;;;;5024467;28;20049;-61
2022/09/15 09:42:38;;;;;;;6.85;1.17;;;;;;;;;;5024981;28;20049;-61
2022/09/15 09:45:06;;;;;;;4.88;0.80;;;;;;;;;;5025270;28;20045;-61
2022/09/15 09:47:33;;;;;;;4.43;0.57;;;;;;;;;;5024505;28;20568;-63
2022/09/15 09:50:00;;;;;;;3.57;0.40;;;;;;;;;;5024215;28;20045;-61
2022/09/15 09:52:33;;;;;;;6.80;0.60;;;;;;;;;;5024886;28;20042;-61
2022/09/15 09:55:00;;;;;;;5.00;0.38;;;;;;;;;;5025033;28;20041;-61
2022/09/15 09:57:28;;;;;;;4.18;0.57;;;;;;;;;;5025252;28;20107;-61
2022/09/15 09:59:54;;;;;;;3.10;0.30;;;;;;;;;;5010423;28;20050;-61
2022/09/15 10:02:23;;;;;;;6.00;0.35;;;;;;;;;;5024459;28;20112;-61
2022/09/15 10:04:52;;;;;;;2.72;0.30;;;;;;;;;;5024423;28;20128;-61
2022/09/15 10:07:25;;;;;;;3.97;0.40;;;;;;;;;;5024734;28;20045;-61
2022/09/15 10:09:51;;;;;;;1.55;0.30;;;;;;;;;;5023811;28;20561;-61
2022/09/15 10:12:20;;;;;;;6.88;0.65;;;;;;;;;;5024458;28;20487;-61
2022/09/15 10:14:50;;;;;;;4.60;0.40;;;;;;;;;;5024065;28;20053;-61
2022/09/15 10:17:22;;;;;;;5.15;0.50;;;;;;;;;;5024434;28;20479;-61
2022/09/15 10:19:53;;;;;;;4.85;0.30;;;;;;;;;;5024355;28;20140;-61
2022/09/15 10:22:21;;;;;;;1.58;0.30;;;;;;;;;;5024556;28;20041;-61
2022/09/15 10:24:48;;;;;;;3.13;0.30;;;;;;;;;;5023469;28;20049;-61
2022/09/15 10:27:19;;;;;;;4.88;0.30;;;;;;;;;;5023505;28;20048;-61
2022/09/15 10:29:46;;;;;;;4.07;0.50;;;;;;;;;;5023680;28;20099;-61
2022/09/15 10:32:23;;;;;;;4.25;0.30;;;;;;;;;;5024457;28;20045;-61
2022/09/15 10:34:58;;;;;;;3.60;0.35;;;;;;;;;;5023820;28;20037;-61
2022/09/15 10:37:31;;;;;;;5.32;0.40;;;;;;;;;;5023939;28;20052;-61
2022/09/15 10:39:59;;;;;;;1.67;0.40;;;;;;;;;;5023789;28;20045;-61
2022/09/15 10:42:32;;;;;;;6.38;0.60;;;;;;;;;;5022330;28;20045;-61
2022/09/15 10:45:08;;;;;;;7.50;0.60;;;;;;;;;;5023495;28;20053;-61
2022/09/15 10:47:42;;;;;;;6.38;0.60;;;;;;;;;;5023357;28;20056;-61
2022/09/15 10:50:14;;;;;;;1.30;0.30;;;;;;;;;;5023584;28;20096;-61
2022/09/15 10:52:47;;;;;;;2.15;0.38;;;;;;;;;;5023273;28;20049;-61
2022/09/15 10:55:16;;;;;;;3.60;0.43;;;;;;;;;;5023138;28;20077;-60
2022/09/15 10:57:51;;;;;;;3.20;0.50;;;;;;;;;;5023668;28;20072;-61
2022/09/15 11:00:21;;;;;;;3.03;0.40;;;;;;;;;;5009932;28;20415;-61
2022/09/15 11:03:06;;;;;;;3.42;0.50;;;;;;;;;;5023565;28;20215;-61
2022/09/15 11:05:40;;;;;;;1.90;0.30;;;;;;;;;;5020306;28;20045;-62
2022/09/15 11:08:13;;;;;;;3.30;0.63;;;;;;;;;;5020471;28;20041;-61
2022/09/15 11:10:41;;;;;;;1.42;0.30;;;;;;;;;;5020152;28;20045;-61
2022/09/15 11:13:13;;;;;;;3.85;0.60;;;;;;;;;;5024247;28;20044;-61
2022/09/15 11:15:53;;;;;;;6.18;0.50;;;;;;;;;;5021749;28;20045;-61
2022/09/15 11:18:19;;;;;;;6.18;0.60;;;;;;;;;;5014209;28;20087;-60
2022/09/15 11:20:53;;;;;;;3.67;0.35;;;;;;;;;;5019702;28;20064;-60
2022/09/15 11:23:24;;;;;;;8.85;0.70;;;;;;;;;;5019748;28;20075;-61
2022/09/15 11:25:57;;;;;;;3.63;0.50;;;;;;;;;;5020272;28;20046;-60
2022/09/15 11:28:28;;;;;;;4.72;0.95;;;;;;;;;;5032790;28;20553;-60
2022/09/15 11:31:03;;;;;;;4.25;0.60;;;;;;;;;;5016563;28;20732;-60
2022/09/15 11:33:36;;;;;;;5.47;0.52;;;;;;;;;;5019006;28;20053;-60
2022/09/15 11:36:06;;;;;;;5.68;0.70;;;;;;;;;;5019745;28;20882;-61
2022/09/15 11:38:46;;;;;;;5.80;0.65;;;;;;;;;;5017335;28;20049;-62
2022/09/15 11:41:13;;;;;;;2.10;0.50;;;;;;;;;;5019239;28;20529;-60
2022/09/15 11:43:44;;;;;;;4.47;0.65;;;;;;;;;;5020025;28;20550;-60
2022/09/15 11:46:30;;;;;;;4.10;0.50;;;;;;;;;;5017051;28;20072;-59
2022/09/15 11:48:56;;;;;;;5.18;0.60;;;;;;;;;;5018846;28;20041;-60
2022/09/15 11:51:24;;;;;;;1.95;0.40;;;;;;;;;;5040272;28;20041;-60
2022/09/15 11:53:55;;;;;;;3.90;0.32;;;;;;;;;;5041156;28;20049;-60
2022/09/15 11:56:25;;;;;;;1.40;0.50;;;;;;;;;;5040320;28;20033;-60
2022/09/15 11:58:56;;;;;;;1.33;0.30;;;;;;;;;;5028077;28;20320;-60
2022/09/15 12:01:25;;;;;;;5.18;0.35;;;;;;;;;;5015830;28;20049;-60
2022/09/15 12:03:56;;;;;;;1.13;0.28;;;;;;;;;;5022240;28;20056;-60
2022/09/15 12:06:26;;;;;;;6.15;0.50;;;;;;;;;;5022469;28;20547;-60
2022/09/15 12:08:57;;;;;;;3.63;0.30;;;;;;;;;;5021355;28;20084;-60
2022/09/15 12:11:26;;;;;;;4.43;0.63;;;;;;;;;;5020566;28;20045;-60
2022/09/15 12:13:53;;;;;;;9.32;0.50;;;;;;;;;;5022176;28;20088;-60
2022/09/15 12:16:20;;;;;;;11.32;0.70;;;;;;;;;;5022666;28;20060;-61
2022/09/15 12:18:51;;;;;;;2.60;0.40;;;;;;;;;;5021898;28;20045;-60
2022/09/15 12:21:21;;;;;;;2.42;0.30;;;;;;;;;;5021531;28;20048;-60
2022/09/15 12:23:53;;;;;;;2.78;0.30;;;;;;;;;;5020169;28;20076;-60
2022/09/15 12:26:21;;;;;;;3.03;0.20;;;;;;;;;;5020137;28;20487;-61
2022/09/15 12:28:53;;;;;;;1.13;0.22;;;;;;;;;;5009949;28;20076;-61
2022/09/15 12:31:22;;;;;;;4.70;0.35;;;;;;;;;;5002479;28;20046;-61
2022/09/15 12:33:53;;;;;;;1.08;0.20;;;;;;;;;;5006656;28;20038;-62
2022/09/15 12:36:36;;;;;;;1.35;0.30;;;;;;;;;;5003484;28;20145;-62
2022/09/15 12:39:04;;;;;;;4.97;0.35;;;;;;;;;;5002613;28;20063;-62
2022/09/15 12:41:31;;;;;;;2.70;0.30;;;;;;;;;;5004543;28;20049;-62
2022/09/15 12:44:02;;;;;;;4.90;0.30;;;;;;;;;;5005975;28;20037;-62
2022/09/15 12:46:28;;;;;;;8.55;0.52;;;;;;;;;;5003525;28;20042;-62
2022/09/15 12:48:58;;;;;;;2.17;0.35;;;;;;;;;;5006378;28;20126;-62
2022/09/15 12:51:26;;;;;;;6.38;0.50;;;;;;;;;;5012691;28;20117;-62
2022/09/15 12:53:54;;;;;;;3.00;0.30;;;;;;;;;;5011658;28;20107;-61
2022/09/15 12:56:23;;;;;;;3.05;0.30;;;;;;;;;;5014428;28;20068;-61
2022/09/15 12:58:50;;;;;;;1.70;0.30;;;;;;;;;;5012185;28;20504;-62
2022/09/15 13:01:18;;;;;;;3.08;0.45;;;;;;;;;;5013435;28;20069;-62
2022/09/15 13:03:44;;;;;;;3.28;0.30;;;;;;;;;;4975010;28;20057;-61
2022/09/15 13:06:13;;;;;;;2.83;0.30;;;;;;;;;;4975808;28;20087;-62
2022/09/15 13:08:51;;;;;;;3.63;0.50;;;;;;;;;;4976566;28;20046;-62
2022/09/15 13:11:27;;;;;;;3.20;0.45;;;;;;;;;;4977077;28;20045;-62
2022/09/15 13:14:05;;;;;;;3.63;0.30;;;;;;;;;;4978532;28;20050;-62
2022/09/15 13:16:31;;;;;;;;;;;;;;;;;;5009600;28;20619;-62
2022/09/15 13:19:14;;;;;;;4.72;0.30;;;;;;;;;;4979646;28;20336;-62
2022/09/15 13:21:41;;;;;;;2.45;0.40;;;;;;;;;;4969311;28;20062;-61
2022/09/15 13:24:13;;;;;;;2.17;0.40;;;;;;;;;;4969930;28;20054;-62
2022/09/15 13:26:40;;;;;;;3.72;0.32;;;;;;;;;;4971667;28;20282;-62
2022/09/15 13:29:06;;;;;;;9.35;0.60;;;;;;;;;;4985640;28;20038;-62
2022/09/15 13:31:37;;;;;;;2.50;0.30;;;;;;;;;;4984746;28;20536;-63
2022/09/15 13:34:22;;;;;;;4.93;0.40;;;;;;;;;;4984773;28;20034;-62
2022/09/15 13:36:59;;;;;;;2.45;0.40;;;;;;;;;;4984158;28;20054;-62
2022/09/15 13:39:26;;;;;;;5.55;0.90;;;;;;;;;;4984127;28;20710;-61
2022/09/15 13:42:03;;;;;;;5.70;0.50;;;;;;;;;;4984625;28;20050;-61
2022/09/15 13:44:36;;;;;;;5.72;0.30;;;;;;;;;;4984865;28;20042;-61
2022/09/15 13:47:06;;;;;;;1.73;0.30;;;;;;;;;;4985101;28;20126;-62
2022/09/15 13:49:51;;;;;;;3.35;0.20;;;;;;;;;;4984586;28;20093;-62
2022/09/15 13:52:17;;;;;;;6.05;0.63;;;;;;;;;;4985407;28;20128;-61
2022/09/15 13:55:18;;;;;;;4.97;0.50;;;;;;;;;;4984139;28;20042;-61
2022/09/15 13:57:46;;;;;;;4.10;0.40;;;;;;;;;;4984600;28;20046;-61
2022/09/15 14:00:14;;;;;;;2.25;0.30;;;;;;;;;;4981020;28;20656;-59
2022/09/15 14:02:43;;;;;;;5.53;0.57;;;;;;;;;;5007223;28;20277;-59
2022/09/15 14:05:09;;;;;;;3.15;0.60;;;;;;;;;;5024287;28;20045;-62
2022/09/15 14:07:35;;;;;;;2.80;0.40;;;;;;;;;;5019650;28;20030;-61
2022/09/15 14:10:01;;;;;;;2.33;0.32;;;;;;;;;;5023376;28;20132;-59
2022/09/15 14:12:28;;;;;;;1.25;0.30;;;;;;;;;;5023102;28;20506;-59
2022/09/15 14:14:57;;;;;;;3.72;0.50;;;;;;;;;;5023686;28;20045;-59
2022/09/15 14:17:26;;;;;;;3.15;0.30;;;;;;;;;;5024019;28;20033;-59
2022/09/15 14:19:53;;;;;;;7.65;0.70;;;;;;;;;;5022911;28;20057;-59
2022/09/15 14:22:19;;;;;;;8.30;0.80;;;;;;;;;;5023578;28;20491;-59
2022/09/15 14:24:46;;;;;;;4.47;0.60;;;;;;;;;;5021468;28;20049;-59
2022/09/15 14:27:16;;;;;;;3.80;0.50;;;;;;;;;;5023681;28;20048;-59
2022/09/15 14:29:43;;;;;;;3.75;0.50;;;;;;;;;;5014009;28;20050;-59
2022/09/15 14:32:14;;;;;;;1.48;0.30;;;;;;;;;;5005945;28;20042;-60
2022/09/15 14:34:41;;;;;;;0.88;0.43;;;;;;;;;;5008011;28;20042;-60
2022/09/15 14:37:19;;;;;;;5.47;0.50;;;;;;;;;;5005815;28;20069;-60
2022/09/15 14:39:49;;;;;;;8.43;0.68;;;;;;;;;;5002676;28;20057;-60
2022/09/15 14:42:20;;;;;;;2.30;0.40;;;;;;;;;;5007187;28;20100;-60
2022/09/15 14:44:46;;;;;;;2.85;0.57;;;;;;;;;;5004268;28;20151;-60
2022/09/15 14:47:13;;;;;;;5.63;0.57;;;;;;;;;;5006492;28;20598;-60
2022/09/15 14:49:39;;;;;;;3.85;0.82;;;;;;;;;;5005983;28;20101;-61
2022/09/15 14:52:14;;;;;;;3.35;0.70;;;;;;;;;;5006220;28;20063;-60
2022/09/15 14:54:40;;;;;;;2.80;0.38;;;;;;;;;;5010529;28;20042;-60